Time;durP1;ratioP1;P1;durP2;ratioP2;P2;SDS_P1;SDS_P2;PMS_P1;PMS_P2;Temp;Humidity;BMP_temperature;BMP_pressure;BME280_temperature;BME280_humidity;BME280_pressure;Samples;Min_cycle;Max_cycle;Signal;HPM_P1;HPM_P2
2022/06/06 00:00:00;;;;;;;;;;;12.80;99.90;;;;;;5060140;28;20031;-56
2022/06/06 00:02:28;;;;;;;11.52;3.75;;;12.70;99.90;;;;;;5053151;28;20391;-56
2022/06/06 00:04:54;;;;;;;12.98;3.85;;;12.80;99.90;;;;;;5055033;28;20393;-55
2022/06/06 00:07:20;;;;;;;10.02;4.15;;;12.70;99.90;;;;;;5056160;28;20036;-56
2022/06/06 00:09:46;;;;;;;8.88;3.58;;;12.70;99.90;;;;;;5055988;28;20025;-55
2022/06/06 00:12:12;;;;;;;8.57;3.42;;;12.70;99.90;;;;;;5053081;28;20090;-55
2022/06/06 00:14:38;;;;;;;6.10;2.70;;;12.80;99.90;;;;;;5048094;28;20062;-56
2022/06/06 00:17:05;;;;;;;12.93;3.20;;;12.80;99.90;;;;;;5057971;28;20056;-55
2022/06/06 00:19:30;;;;;;;9.15;2.63;;;12.70;99.90;;;;;;5055779;28;20032;-55
2022/06/06 00:21:56;;;;;;;10.63;3.50;;;12.70;99.90;;;;;;5054360;28;20033;-54
2022/06/06 00:24:22;;;;;;;8.52;2.97;;;12.70;99.90;;;;;;5058445;28;20021;-55
2022/06/06 00:26:48;;;;;;;7.43;2.60;;;12.70;99.90;;;;;;5056379;28;20025;-56
2022/06/06 00:29:16;;;;;;;10.68;2.85;;;12.70;99.90;;;;;;5045301;28;20021;-54
2022/06/06 00:37:14;;;;;;;8.43;2.10;;;12.80;99.90;;;;;;5046359;28;20060;-53
2022/06/06 00:39:42;;;;;;;5.93;2.65;;;12.90;99.90;;;;;;5049700;28;20021;-55
2022/06/06 00:42:17;;;;;;;11.98;2.70;;;12.90;99.90;;;;;;5055654;28;20443;-56
2022/06/06 00:44:43;;;;;;;3.92;2.20;;;12.90;99.90;;;;;;5040734;28;20033;-54
2022/06/06 00:47:27;;;;;;;10.35;2.33;;;12.90;99.90;;;;;;5055192;28;20031;-54
2022/06/06 00:50:09;;;;;;;3.38;1.90;;;12.80;99.90;;;;;;5058689;28;20027;-54
2022/06/06 00:52:39;;;;;;;6.22;2.50;;;12.90;99.90;;;;;;5048291;28;20450;-55
2022/06/06 00:55:31;;;;;;;8.80;2.80;;;12.90;99.90;;;;;;5050995;28;20052;-55
2022/06/06 00:58:05;;;;;;;8.80;2.83;;;12.90;99.90;;;;;;5040954;28;20049;-55
2022/06/06 01:00:31;;;;;;;6.30;2.55;;;12.90;99.90;;;;;;5056799;28;20529;-55
2022/06/06 01:03:03;;;;;;;7.55;2.45;;;12.90;99.90;;;;;;5050935;28;20028;-56
2022/06/06 01:05:29;;;;;;;10.80;2.67;;;12.90;99.90;;;;;;5050346;28;20052;-56
2022/06/06 01:07:54;;;;;;;10.07;2.40;;;12.80;99.90;;;;;;5048786;28;20043;-55
2022/06/06 01:10:21;;;;;;;11.13;2.95;;;12.70;99.90;;;;;;5053866;28;20037;-54
2022/06/06 01:12:51;;;;;;;8.45;2.42;;;12.70;99.90;;;;;;5051436;28;20049;-55
2022/06/06 01:15:22;;;;;;;7.53;2.50;;;12.70;99.90;;;;;;5050904;28;20135;-56
2022/06/06 01:18:26;;;;;;;8.27;2.60;;;12.70;99.90;;;;;;5037501;28;20029;-56
2022/06/06 01:21:21;;;;;;;10.98;2.83;;;12.70;99.90;;;;;;5038735;28;20021;-54
2022/06/06 01:24:05;;;;;;;10.43;2.70;;;12.70;99.90;;;;;;5048256;28;20068;-57
2022/06/06 01:27:11;;;;;;;10.45;3.35;;;12.60;99.90;;;;;;5063706;28;20066;-56
2022/06/06 01:29:44;;;;;;;11.02;3.10;;;12.70;99.90;;;;;;5049315;28;20064;-56
2022/06/06 01:32:18;;;;;;;8.88;2.80;;;12.70;99.90;;;;;;5046620;28;20426;-53
2022/06/06 01:34:44;;;;;;;10.18;2.55;;;12.80;99.90;;;;;;5033583;28;20025;-56
2022/06/06 01:37:26;;;;;;;12.00;3.65;;;12.90;99.90;;;;;;5052791;28;20051;-55
2022/06/06 01:39:52;;;;;;;5.35;2.03;;;12.90;99.90;;;;;;5056881;28;20032;-55
2022/06/06 01:42:34;;;;;;;10.07;2.70;;;12.90;99.90;;;;;;5053748;28;20032;-55
2022/06/06 01:45:12;;;;;;;12.13;3.42;;;12.90;99.90;;;;;;5048708;28;20488;-55
2022/06/06 01:47:46;;;;;;;7.10;2.40;;;12.90;99.90;;;;;;5046983;28;20059;-55
2022/06/06 01:50:12;;;;;;;7.53;2.58;;;12.90;99.90;;;;;;5048114;28;20064;-55
2022/06/06 01:53:06;;;;;;;13.00;2.60;;;12.90;99.90;;;;;;5050995;28;20032;-54
2022/06/06 01:55:36;;;;;;;7.57;2.30;;;12.80;99.90;;;;;;5046878;28;20060;-56
2022/06/06 01:58:05;;;;;;;9.02;2.40;;;12.80;99.90;;;;;;5054833;28;20384;-56
2022/06/06 02:00:34;;;;;;;9.32;2.53;;;12.80;99.90;;;;;;5062099;28;20021;-55
2022/06/06 02:02:59;;;;;;;11.60;3.13;;;12.90;99.90;;;;;;5059321;28;20102;-54
2022/06/06 02:05:26;;;;;;;5.80;2.55;;;12.90;99.90;;;;;;5058235;28;20468;-54
2022/06/06 02:07:52;;;;;;;10.15;2.50;;;12.90;99.90;;;;;;5051176;28;20029;-55
2022/06/06 02:10:20;;;;;;;5.40;2.80;;;12.90;99.90;;;;;;5060818;28;20029;-56
2022/06/06 02:12:46;;;;;;;14.00;2.45;;;13.00;99.90;;;;;;5054827;28;20029;-56
2022/06/06 02:15:16;;;;;;;9.93;2.28;;;12.90;99.90;;;;;;5065406;28;20396;-55
2022/06/06 02:17:42;;;;;;;8.60;2.15;;;12.90;99.90;;;;;;5055342;28;20089;-55
2022/06/06 02:20:10;;;;;;;7.95;1.98;;;12.90;99.90;;;;;;5050932;28;20115;-56
2022/06/06 02:22:35;;;;;;;19.23;2.88;;;12.80;99.90;;;;;;5056801;28;20033;-55
2022/06/06 02:25:02;;;;;;;8.07;2.20;;;12.90;99.90;;;;;;5051726;28;20388;-56
2022/06/06 02:27:28;;;;;;;10.05;2.30;;;13.00;99.90;;;;;;5049187;28;20132;-56
2022/06/06 02:29:54;;;;;;;10.15;2.58;;;13.00;99.90;;;;;;5050030;28;20431;-56
2022/06/06 02:32:20;;;;;;;11.93;2.50;;;13.00;99.90;;;;;;5055792;28;20033;-55
2022/06/06 02:34:47;;;;;;;9.65;2.60;;;13.00;99.90;;;;;;5060338;28;20055;-56
2022/06/06 02:37:13;;;;;;;9.30;2.50;;;13.00;99.90;;;;;;5052262;28;20044;-56
2022/06/06 02:39:39;;;;;;;6.68;3.35;;;13.00;99.90;;;;;;5058566;28;20074;-56
2022/06/06 02:42:05;;;;;;;8.77;2.55;;;13.00;99.90;;;;;;5054424;28;20439;-54
2022/06/06 02:44:31;;;;;;;7.40;2.22;;;13.10;99.90;;;;;;5052936;28;20115;-56
2022/06/06 02:46:57;;;;;;;10.43;2.75;;;13.10;99.90;;;;;;5050122;28;20025;-54
2022/06/06 02:49:22;;;;;;;12.05;2.72;;;13.10;99.90;;;;;;5055508;28;20040;-53
2022/06/06 02:51:48;;;;;;;7.07;2.13;;;13.10;99.90;;;;;;5056575;28;20082;-54
2022/06/06 02:54:14;;;;;;;10.80;2.35;;;13.10;99.90;;;;;;5054949;28;20055;-54
2022/06/06 02:56:40;;;;;;;9.35;2.22;;;13.10;99.90;;;;;;5050546;28;20033;-54
2022/06/06 02:59:08;;;;;;;10.73;2.70;;;13.10;99.90;;;;;;5061412;28;20070;-54
2022/06/06 03:01:34;;;;;;;8.45;3.45;;;13.10;99.90;;;;;;5060321;28;20020;-54
2022/06/06 03:04:00;;;;;;;9.13;3.00;;;13.10;99.90;;;;;;5049902;28;20020;-54
2022/06/06 03:07:09;;;;;;;11.35;3.40;;;13.10;99.90;;;;;;5054031;28;20025;-55
2022/06/06 03:09:47;;;;;;;14.20;3.20;;;13.20;99.90;;;;;;5008730;28;20397;-55
2022/06/06 03:13:20;;;;;;;13.52;2.92;;;13.10;99.90;;;;;;5005970;28;20045;-55
2022/06/06 03:22:29;;;;;;;13.50;2.70;;;13.40;99.90;;;;;;4924854;29;20050;-55
2022/06/06 03:25:32;;;;;;;13.63;3.22;;;13.40;99.90;;;;;;4928386;29;20139;-55
2022/06/06 03:28:18;;;;;;;15.80;3.35;;;13.40;99.90;;;;;;4926934;29;20035;-56
2022/06/06 03:31:16;;;;;;;13.40;2.40;;;13.50;99.90;;;;;;4926087;29;20039;-55
2022/06/06 03:33:56;;;;;;;8.77;2.65;;;13.50;99.90;;;;;;4930303;29;20035;-55
2022/06/06 03:36:45;;;;;;;11.57;3.38;;;13.50;99.90;;;;;;4940614;29;20054;-56
2022/06/06 03:39:37;;;;;;;20.45;4.90;;;13.60;99.90;;;;;;4932515;29;20271;-55
2022/06/06 03:42:39;;;;;;;14.35;3.25;;;13.50;99.90;;;;;;4927743;29;20039;-55
2022/06/06 03:45:38;;;;;;;9.75;3.78;;;13.50;99.90;;;;;;4931889;28;20460;-56
2022/06/06 03:48:12;;;;;;;13.63;2.58;;;13.50;99.90;;;;;;4971013;28;20566;-55
2022/06/06 03:50:57;;;;;;;8.50;2.90;;;13.60;99.90;;;;;;5033838;28;20036;-55
2022/06/06 03:53:56;;;;;;;6.72;2.80;;;13.50;99.90;;;;;;5053332;28;20033;-55
2022/06/06 03:56:55;;;;;;;7.43;2.70;;;13.50;99.90;;;;;;5053807;28;20056;-56
2022/06/06 03:59:22;;;;;;;8.02;2.50;;;13.50;99.90;;;;;;5049472;28;20024;-54
2022/06/06 04:01:50;;;;;;;6.25;3.63;;;13.50;99.90;;;;;;5055203;28;20021;-56
2022/06/06 04:04:17;;;;;;;14.27;2.60;;;13.50;99.90;;;;;;5053359;28;20101;-54
2022/06/06 04:06:45;;;;;;;5.63;2.92;;;13.50;99.90;;;;;;5055425;28;20481;-55
2022/06/06 04:09:11;;;;;;;7.25;2.50;;;13.50;99.90;;;;;;5049668;28;20029;-55
2022/06/06 04:11:50;;;;;;;6.28;3.13;;;13.50;99.90;;;;;;5049768;28;20026;-56
2022/06/06 04:14:25;;;;;;;8.35;2.97;;;13.50;99.90;;;;;;5049219;28;20040;-55
2022/06/06 04:17:02;;;;;;;7.88;3.05;;;13.50;99.90;;;;;;5048976;28;20496;-56
2022/06/06 04:19:42;;;;;;;10.75;2.65;;;13.50;99.90;;;;;;5055475;28;20402;-56
2022/06/06 04:22:26;;;;;;;7.00;2.00;;;13.50;99.90;;;;;;5044184;28;20447;-56
2022/06/06 04:25:13;;;;;;;7.20;2.15;;;13.50;99.90;;;;;;5050759;28;20385;-57
2022/06/06 04:27:58;;;;;;;7.60;2.13;;;13.60;99.90;;;;;;5046277;28;20366;-55
2022/06/06 04:30:45;;;;;;;10.20;3.15;;;13.60;99.90;;;;;;5053360;28;20396;-56
2022/06/06 04:33:28;;;;;;;7.93;2.60;;;13.60;99.90;;;;;;5046840;28;20036;-56
2022/06/06 04:36:11;;;;;;;4.07;1.92;;;13.60;99.90;;;;;;5040879;28;20079;-56
2022/06/06 04:38:55;;;;;;;9.75;2.13;;;13.60;99.90;;;;;;5052460;28;20029;-54
2022/06/06 04:41:21;;;;;;;6.75;2.42;;;13.60;99.90;;;;;;5053068;28;20029;-55
2022/06/06 04:44:05;;;;;;;5.15;1.80;;;13.50;99.90;;;;;;5055433;28;20373;-54
2022/06/06 04:46:40;;;;;;;8.63;2.45;;;13.50;99.90;;;;;;5046077;28;20025;-55
2022/06/06 04:49:07;;;;;;;4.60;1.95;;;13.50;99.90;;;;;;5050301;28;20434;-56
2022/06/06 04:51:34;;;;;;;10.07;1.90;;;13.50;99.90;;;;;;5053094;28;20086;-55
2022/06/06 04:54:02;;;;;;;4.88;1.90;;;13.50;99.90;;;;;;5048543;28;20095;-55
2022/06/06 04:56:28;;;;;;;6.10;2.22;;;13.50;99.90;;;;;;5054558;28;20052;-56
2022/06/06 04:58:57;;;;;;;7.97;2.40;;;13.60;99.90;;;;;;5056310;28;20024;-55
2022/06/06 05:01:24;;;;;;;4.63;2.30;;;13.60;99.90;;;;;;5047089;28;20037;-55
2022/06/06 05:03:50;;;;;;;4.00;1.90;;;13.50;99.90;;;;;;5058291;28;20480;-54
2022/06/06 05:06:42;;;;;;;8.05;2.65;;;13.60;99.90;;;;;;5051360;28;20060;-54
2022/06/06 05:09:40;;;;;;;5.32;1.70;;;13.60;99.90;;;;;;5048001;28;20036;-54
2022/06/06 05:12:23;;;;;;;4.88;1.92;;;13.60;99.90;;;;;;5054374;28;20021;-52
2022/06/06 05:15:14;;;;;;;7.95;2.20;;;13.60;99.90;;;;;;5043763;28;20037;-55
2022/06/06 05:18:01;;;;;;;6.07;2.22;;;13.50;99.90;;;;;;5054886;28;20132;-50
2022/06/06 05:20:55;;;;;;;6.60;2.47;;;13.60;99.90;;;;;;5062134;28;20037;-52
2022/06/06 05:23:40;;;;;;;4.97;2.00;;;13.60;99.90;;;;;;5048563;28;20033;-53
2022/06/06 05:26:39;;;;;;;4.75;1.90;;;13.70;99.90;;;;;;5055005;28;20036;-54
2022/06/06 05:29:26;;;;;;;5.00;2.00;;;13.70;99.90;;;;;;5055379;28;20035;-52
2022/06/06 05:32:20;;;;;;;5.85;1.85;;;13.70;99.90;;;;;;5057920;28;20033;-54
2022/06/06 05:35:01;;;;;;;5.95;2.55;;;13.80;99.90;;;;;;5055545;28;20078;-55
2022/06/06 05:37:51;;;;;;;5.68;2.75;;;13.90;99.90;;;;;;5053716;28;20040;-54
2022/06/06 05:40:35;;;;;;;5.57;1.88;;;13.80;99.90;;;;;;5060845;28;20053;-54
2022/06/06 05:43:22;;;;;;;4.78;2.10;;;13.90;99.90;;;;;;5055513;28;20484;-52
2022/06/06 05:46:23;;;;;;;8.32;2.67;;;14.00;99.90;;;;;;5060505;28;20021;-54
2022/06/06 05:49:40;;;;;;;5.70;2.00;;;14.10;99.90;;;;;;5054744;28;20377;-55
2022/06/06 05:52:24;;;;;;;5.13;2.58;;;14.20;99.90;;;;;;5019488;28;20563;-55
2022/06/06 05:55:18;;;;;;;3.53;1.95;;;14.30;99.90;;;;;;5011433;28;20156;-55
2022/06/06 05:57:44;;;;;;;5.30;2.55;;;14.40;99.90;;;;;;5018835;28;20046;-54
2022/06/06 06:00:34;;;;;;;8.68;2.05;;;14.50;99.90;;;;;;5023481;28;20029;-56
2022/06/06 06:03:02;;;;;;;4.60;2.38;;;14.50;99.90;;;;;;5002264;28;20068;-55
2022/06/06 06:05:37;;;;;;;5.60;2.30;;;14.50;99.90;;;;;;5023900;28;20459;-54
2022/06/06 06:08:16;;;;;;;4.22;2.55;;;14.60;99.90;;;;;;5022868;28;20025;-54
2022/06/06 06:11:07;;;;;;;3.45;2.20;;;14.60;99.90;;;;;;5017915;28;20057;-52
2022/06/06 06:13:45;;;;;;;6.93;2.92;;;14.70;99.90;;;;;;5024801;28;20026;-53
2022/06/06 06:16:13;;;;;;;5.88;3.00;;;14.80;99.90;;;;;;5017308;28;20133;-55
2022/06/06 06:19:01;;;;;;;4.78;2.60;;;14.80;99.90;;;;;;5026004;28;20037;-54
2022/06/06 06:21:33;;;;;;;4.63;2.80;;;14.80;99.90;;;;;;5013057;28;20044;-55
2022/06/06 06:24:07;;;;;;;6.38;2.65;;;14.90;99.90;;;;;;5014041;28;20515;-53
2022/06/06 06:26:35;;;;;;;7.63;2.80;;;15.00;99.90;;;;;;5021970;28;20486;-54
2022/06/06 06:29:04;;;;;;;4.57;2.80;;;14.90;99.90;;;;;;5067844;28;20082;-54
2022/06/06 06:32:01;;;;;;;8.35;2.95;;;14.90;99.90;;;;;;5060390;28;20033;-54
2022/06/06 06:34:51;;;;;;;10.75;2.50;;;14.80;99.90;;;;;;5060915;28;20024;-52
2022/06/06 06:37:58;;;;;;;3.70;2.60;;;14.70;99.90;;;;;;5057924;28;20037;-52
2022/06/06 06:40:50;;;;;;;4.68;2.33;;;14.80;99.90;;;;;;5035742;28;20123;-51
2022/06/06 06:43:34;;;;;;;6.00;3.15;;;14.80;99.90;;;;;;5041819;28;20095;-54
2022/06/06 06:46:05;;;;;;;6.05;3.58;;;14.70;99.90;;;;;;5020571;28;20550;-51
2022/06/06 06:48:56;;;;;;;7.13;3.22;;;14.70;99.90;;;;;;5025579;28;20122;-54
2022/06/06 06:51:43;;;;;;;4.88;2.50;;;14.80;99.90;;;;;;5043131;28;20039;-51
2022/06/06 06:54:27;;;;;;;7.68;2.80;;;14.70;99.90;;;;;;5027789;28;20389;-55
2022/06/06 06:57:19;;;;;;;5.05;2.67;;;14.60;99.90;;;;;;5035084;28;20115;-54
2022/06/06 07:00:01;;;;;;;4.38;2.72;;;14.60;99.90;;;;;;5036869;28;20079;-52
2022/06/06 07:08:45;;;;;;;8.18;2.63;;;15.20;99.90;;;;;;5030015;28;20096;-58
2022/06/06 07:11:29;;;;;;;4.40;2.80;;;15.40;99.90;;;;;;5033485;28;20029;-57
2022/06/06 07:14:30;;;;;;;4.40;2.95;;;15.50;99.90;;;;;;5036644;28;20154;-52
2022/06/06 07:16:58;;;;;;;5.93;2.70;;;15.50;99.90;;;;;;5029723;28;20139;-52
2022/06/06 07:19:53;;;;;;;3.13;2.33;;;15.50;99.90;;;;;;5041310;28;20034;-51
2022/06/06 07:22:20;;;;;;;6.68;3.13;;;15.60;99.90;;;;;;5049768;28;20043;-50
2022/06/06 07:24:57;;;;;;;2.78;2.10;;;15.70;99.90;;;;;;5061369;28;20040;-51
2022/06/06 07:27:23;;;;;;;2.47;2.00;;;15.60;99.90;;;;;;5056652;28;20065;-53
2022/06/06 07:29:48;;;;;;;4.53;2.20;;;15.30;99.90;;;;;;5042240;28;20084;-54
2022/06/06 07:32:44;;;;;;;2.63;1.75;;;15.40;99.90;;;;;;5051785;28;20064;-53
2022/06/06 07:35:34;;;;;;;2.63;2.05;;;15.50;99.90;;;;;;5047764;28;20028;-53
2022/06/06 07:38:36;;;;;;;3.17;2.45;;;15.40;99.90;;;;;;5053884;28;20086;-53
2022/06/06 07:41:31;;;;;;;4.95;1.80;;;15.20;99.90;;;;;;5057751;28;20107;-53
2022/06/06 07:44:12;;;;;;;2.63;1.92;;;15.10;99.90;;;;;;5044162;28;20025;-54
2022/06/06 07:47:06;;;;;;;4.43;2.45;;;15.10;99.90;;;;;;5062542;28;20036;-50
2022/06/06 07:49:46;;;;;;;7.32;2.15;;;15.10;99.90;;;;;;5055596;28;20033;-56
2022/06/06 07:52:23;;;;;;;2.90;1.38;;;15.20;99.90;;;;;;5049739;28;20172;-53
2022/06/06 07:55:02;;;;;;;1.88;1.38;;;15.30;99.90;;;;;;5055740;28;20056;-53
2022/06/06 07:58:02;;;;;;;5.80;1.65;;;15.30;99.90;;;;;;5050276;28;20478;-53
2022/06/06 08:00:28;;;;;;;2.22;1.52;;;15.60;99.90;;;;;;5057149;28;20036;-53
2022/06/06 08:03:27;;;;;;;3.08;1.35;;;15.80;99.90;;;;;;5050660;28;20116;-53
2022/06/06 08:05:58;;;;;;;7.72;2.45;;;16.10;99.90;;;;;;5052683;28;20029;-52
2022/06/06 08:09:02;;;;;;;7.38;2.08;;;16.40;99.90;;;;;;5052363;28;20029;-54
2022/06/06 08:11:45;;;;;;;4.32;1.75;;;16.50;99.90;;;;;;5041671;28;20480;-54
2022/06/06 08:14:25;;;;;;;5.53;1.73;;;16.50;99.90;;;;;;5043227;28;20507;-54
2022/06/06 08:17:04;;;;;;;4.65;2.00;;;16.60;99.90;;;;;;5044760;28;20056;-53
2022/06/06 08:19:47;;;;;;;2.60;1.63;;;16.40;99.90;;;;;;5037695;28;20063;-53
2022/06/06 08:22:14;;;;;;;2.15;1.55;;;16.40;99.90;;;;;;5046343;28;20036;-51
2022/06/06 08:24:47;;;;;;;3.97;2.28;;;16.40;99.90;;;;;;5046115;28;20076;-55
2022/06/06 08:27:16;;;;;;;5.53;2.10;;;16.40;99.90;;;;;;5038724;28;20047;-53
2022/06/06 08:29:44;;;;;;;2.78;1.67;;;16.50;99.90;;;;;;5038950;28;20021;-53
2022/06/06 08:32:12;;;;;;;2.20;1.90;;;16.70;99.90;;;;;;5034030;28;20111;-52
2022/06/06 08:34:38;;;;;;;4.28;1.92;;;16.70;99.90;;;;;;5044185;28;20026;-53
2022/06/06 08:37:16;;;;;;;4.13;1.63;;;16.80;99.90;;;;;;5065111;28;20064;-51
2022/06/06 08:40:09;;;;;;;1.83;1.52;;;16.70;99.90;;;;;;5060029;28;20498;-53
2022/06/06 08:42:49;;;;;;;3.17;2.00;;;16.60;99.90;;;;;;5052749;28;20047;-54
2022/06/06 08:45:21;;;;;;;5.55;1.95;;;16.80;99.90;;;;;;5057531;28;20033;-52
2022/06/06 08:48:02;;;;;;;5.10;1.70;;;16.80;99.90;;;;;;5056102;28;20396;-52
2022/06/06 08:50:53;;;;;;;8.85;1.77;;;16.80;99.90;;;;;;5053018;28;20421;-50
2022/06/06 08:53:43;;;;;;;2.15;1.48;;;17.00;99.90;;;;;;5063054;28;20032;-51
2022/06/06 08:56:51;;;;;;;1.85;1.30;;;17.30;99.90;;;;;;5045537;28;20029;-54
2022/06/06 08:59:41;;;;;;;5.88;1.98;;;17.10;99.90;;;;;;5030532;28;20381;-50
2022/06/06 09:02:22;;;;;;;4.43;1.77;;;17.00;99.90;;;;;;5031968;28;20350;-55
2022/06/06 09:05:26;;;;;;;3.63;1.60;;;17.30;99.90;;;;;;5029396;28;20040;-53
2022/06/06 09:08:13;;;;;;;5.32;1.83;;;17.60;99.90;;;;;;5029616;28;20037;-52
2022/06/06 09:10:47;;;;;;;5.05;1.60;;;17.70;99.90;;;;;;5032745;28;20113;-53
2022/06/06 09:13:15;;;;;;;3.10;1.55;;;17.60;99.90;;;;;;5029643;28;20041;-54
2022/06/06 09:16:03;;;;;;;4.22;1.80;;;17.60;99.90;;;;;;5034924;28;20087;-54
2022/06/06 09:18:55;;;;;;;2.72;1.50;;;17.70;99.90;;;;;;5029841;28;20507;-53
2022/06/06 09:21:57;;;;;;;6.70;2.03;;;17.80;99.90;;;;;;5031640;28;20036;-55
2022/06/06 09:24:38;;;;;;;5.53;1.95;;;17.70;99.90;;;;;;5026488;28;20501;-54
2022/06/06 09:27:37;;;;;;;7.72;2.63;;;17.60;99.90;;;;;;5024802;28;20208;-54
2022/06/06 09:30:44;;;;;;;6.68;1.88;;;17.50;99.90;;;;;;5027669;28;20029;-54
2022/06/06 09:33:37;;;;;;;10.80;2.13;;;17.10;99.90;;;;;;4972348;28;20099;-52
2022/06/06 09:36:20;;;;;;;9.93;2.28;;;16.80;99.90;;;;;;4973326;28;20055;-54
2022/06/06 09:39:00;;;;;;;6.78;2.03;;;16.50;99.90;;;;;;4998139;28;20038;-50
2022/06/06 09:41:37;;;;;;;6.35;2.15;;;16.20;99.90;;;;;;4982698;28;20154;-55
2022/06/06 09:44:04;;;;;;;5.47;1.40;;;15.90;99.90;;;;;;4991941;28;20038;-54
2022/06/06 09:46:36;;;;;;;6.07;2.15;;;15.80;99.90;;;;;;4987006;28;20129;-53
2022/06/06 09:49:20;;;;;;;8.18;2.00;;;15.70;99.90;;;;;;4991652;28;20184;-55
2022/06/06 09:52:00;;;;;;;5.82;1.67;;;15.70;99.90;;;;;;4985306;28;20041;-54
2022/06/06 10:01:10;;;;;;;3.95;1.27;;;16.20;99.90;;;;;;4984776;28;20045;-52
2022/06/06 10:03:39;;;;;;;5.50;1.17;;;16.60;99.90;;;;;;4986037;28;20034;-54
2022/06/06 10:06:14;;;;;;;3.92;1.38;;;16.70;99.90;;;;;;4990564;28;20026;-52
2022/06/06 10:09:08;;;;;;;10.93;1.80;;;16.60;99.90;;;;;;5055772;28;20029;-54
2022/06/06 10:12:11;;;;;;;8.63;1.67;;;16.50;99.90;;;;;;5056115;28;20472;-53
2022/06/06 10:14:45;;;;;;;8.00;1.92;;;16.20;99.90;;;;;;5052745;28;20417;-52
2022/06/06 10:17:49;;;;;;;11.13;2.22;;;16.20;99.90;;;;;;5050223;28;20040;-51
2022/06/06 10:20:44;;;;;;;6.43;2.90;;;16.00;99.90;;;;;;5047841;28;20120;-53
2022/06/06 10:23:49;;;;;;;7.38;1.80;;;15.90;99.90;;;;;;5048776;28;20040;-53
2022/06/06 10:26:33;;;;;;;8.30;2.70;;;16.00;99.90;;;;;;5055770;28;20033;-57
2022/06/06 10:32:37;;;;;;;6.95;1.95;;;16.00;99.90;;;;;;5051570;28;20051;-54
2022/06/06 10:35:29;;;;;;;10.18;1.55;;;16.00;99.90;;;;;;5051129;28;20029;-52
2022/06/06 10:38:03;;;;;;;12.48;2.42;;;16.00;99.90;;;;;;5064897;28;20068;-53
2022/06/06 10:40:44;;;;;;;6.45;1.60;;;15.80;99.90;;;;;;5058432;28;20380;-54
2022/06/06 10:43:27;;;;;;;10.85;1.75;;;15.80;99.90;;;;;;5062245;28;20024;-53
2022/06/06 10:46:06;;;;;;;7.50;1.60;;;15.80;99.90;;;;;;5051276;28;20579;-53
2022/06/06 10:48:38;;;;;;;7.05;1.42;;;15.90;99.90;;;;;;5049874;28;20029;-51
2022/06/06 10:51:37;;;;;;;4.40;1.85;;;15.90;99.90;;;;;;5052783;28;20020;-52
2022/06/06 10:54:40;;;;;;;5.45;1.70;;;16.20;99.90;;;;;;5055110;28;20028;-55
2022/06/06 10:57:43;;;;;;;11.05;2.20;;;16.20;99.90;;;;;;5037760;28;20094;-55
2022/06/06 11:00:19;;;;;;;8.93;2.05;;;16.30;99.90;;;;;;5052502;28;20103;-55
2022/06/06 11:03:06;;;;;;;11.82;1.77;;;16.50;99.90;;;;;;5046211;28;20120;-57
2022/06/06 11:06:09;;;;;;;11.77;2.13;;;16.40;99.90;;;;;;5050190;28;20025;-54
2022/06/06 11:08:44;;;;;;;6.60;1.75;;;16.50;99.90;;;;;;5059276;28;20056;-53
2022/06/06 11:11:19;;;;;;;7.88;1.55;;;16.60;99.90;;;;;;5051056;28;20029;-53
2022/06/06 11:14:00;;;;;;;10.57;1.70;;;16.50;99.90;;;;;;5052059;28;20114;-54
2022/06/06 11:16:48;;;;;;;7.82;1.95;;;16.70;99.90;;;;;;5055644;28;20057;-54
2022/06/06 11:19:35;;;;;;;9.55;1.80;;;16.80;99.90;;;;;;5048660;28;20465;-51
2022/06/06 11:22:37;;;;;;;7.15;1.30;;;17.10;99.90;;;;;;5054607;28;20033;-53
2022/06/06 11:25:09;;;;;;;5.20;1.50;;;17.20;99.90;;;;;;5052062;28;20023;-54
2022/06/06 11:27:55;;;;;;;7.40;1.35;;;17.40;99.90;;;;;;5050653;28;20078;-54
2022/06/06 11:30:43;;;;;;;5.32;1.52;;;17.60;99.90;;;;;;5050339;28;20033;-53
2022/06/06 11:33:36;;;;;;;5.07;1.58;;;17.70;99.90;;;;;;5051931;28;20114;-55
2022/06/06 11:36:16;;;;;;;9.40;1.50;;;17.60;99.90;;;;;;5048297;28;20037;-54
2022/06/06 11:39:26;;;;;;;6.35;1.20;;;17.50;99.90;;;;;;5050646;28;20119;-52
2022/06/06 11:42:21;;;;;;;4.95;1.52;;;17.70;99.90;;;;;;5058811;28;20091;-55
2022/06/06 11:45:00;;;;;;;4.68;2.15;;;17.80;99.90;;;;;;5050989;28;20044;-52
2022/06/06 11:47:47;;;;;;;7.22;1.67;;;17.70;99.90;;;;;;5048804;28;20037;-54
2022/06/06 11:50:36;;;;;;;5.10;2.10;;;17.30;99.90;;;;;;5057119;28;20040;-54
2022/06/06 11:53:26;;;;;;;4.85;1.73;;;17.00;99.90;;;;;;5055972;28;20143;-54
2022/06/06 11:56:16;;;;;;;7.05;1.30;;;16.90;99.90;;;;;;5041780;28;20064;-55
2022/06/06 11:59:06;;;;;;;6.93;2.08;;;16.90;99.90;;;;;;5057062;28;20044;-57
2022/06/06 12:01:51;;;;;;;12.32;1.90;;;17.40;99.90;;;;;;5059123;28;20442;-57
2022/06/06 12:04:27;;;;;;;5.65;1.70;;;17.80;99.90;;;;;;5055823;28;20086;-56
2022/06/06 12:07:20;;;;;;;10.05;1.70;;;17.90;99.90;;;;;;5052078;28;20074;-56
2022/06/06 12:10:04;;;;;;;5.72;1.70;;;18.00;99.90;;;;;;5058440;28;20625;-55
2022/06/06 12:12:42;;;;;;;4.60;1.50;;;18.40;99.90;;;;;;5059494;28;20020;-55
2022/06/06 12:15:07;;;;;;;5.22;1.48;;;18.40;99.90;;;;;;5051092;28;20031;-55
2022/06/06 12:17:39;;;;;;;7.55;1.55;;;18.30;99.90;;;;;;5062510;28;20037;-55
2022/06/06 12:20:37;;;;;;;6.72;1.60;;;18.50;99.90;;;;;;5041913;28;20107;-55
2022/06/06 12:23:35;;;;;;;13.50;1.65;;;18.50;99.90;;;;;;5044807;28;20081;-57
2022/06/06 12:26:20;;;;;;;6.95;1.85;;;18.70;99.90;;;;;;5052688;28;20478;-56
2022/06/06 12:28:51;;;;;;;5.47;1.88;;;19.20;99.90;;;;;;5054620;28;20040;-56
2022/06/06 12:31:39;;;;;;;5.60;1.58;;;19.00;99.90;;;;;;5052756;28;20519;-56
2022/06/06 12:34:22;;;;;;;5.95;2.58;;;18.70;99.90;;;;;;5060021;28;20028;-55
2022/06/06 12:36:58;;;;;;;4.00;1.35;;;18.70;99.90;;;;;;5043086;28;20037;-55
2022/06/06 12:39:39;;;;;;;9.45;1.48;;;18.50;99.90;;;;;;5053215;28;20045;-57
2022/06/06 12:42:20;;;;;;;8.27;1.70;;;18.50;99.90;;;;;;5057211;28;20119;-55
2022/06/06 12:44:57;;;;;;;2.95;1.30;;;18.70;99.90;;;;;;5064064;28;20043;-55
2022/06/06 12:47:38;;;;;;;5.53;1.80;;;19.00;99.90;;;;;;5053242;28;20028;-55
2022/06/06 12:50:25;;;;;;;6.50;2.00;;;18.80;99.90;;;;;;5055659;28;20031;-56
2022/06/06 12:53:12;;;;;;;7.75;2.00;;;18.50;99.90;;;;;;5051873;28;20053;-55
2022/06/06 12:56:35;;;;;;;9.15;1.67;;;17.80;99.90;;;;;;5061861;28;20028;-55
2022/06/06 12:58:46;;;;;;;9.80;1.35;;;17.90;99.90;;;;;;5063112;28;20062;-55
2022/06/06 13:01:46;;;;;;;10.70;2.13;;;17.70;99.90;;;;;;5053378;28;20025;-55
2022/06/06 13:04:29;;;;;;;5.80;1.35;;;17.90;99.90;;;;;;5059834;28;20384;-55
2022/06/06 13:07:14;;;;;;;7.05;1.33;;;17.90;99.90;;;;;;5039466;28;20035;-56
2022/06/06 13:10:05;;;;;;;5.97;2.15;;;18.30;99.90;;;;;;5055364;28;20028;-56
2022/06/06 13:13:13;;;;;;;7.55;2.28;;;18.50;99.90;;;;;;5044224;28;20052;-56
2022/06/06 13:16:04;;;;;;;5.22;1.13;;;19.00;99.90;;;;;;5044374;28;20122;-56
2022/06/06 13:19:08;;;;;;;5.60;1.63;;;18.90;99.90;;;;;;5048605;28;20084;-54
2022/06/06 13:21:47;;;;;;;6.97;2.08;;;19.00;99.90;;;;;;5042623;28;20025;-56
2022/06/06 13:24:37;;;;;;;9.52;2.28;;;19.00;99.90;;;;;;5051413;28;20091;-56
2022/06/06 13:27:31;;;;;;;9.48;1.55;;;19.20;99.90;;;;;;5045171;28;20028;-56
2022/06/06 13:30:43;;;;;;;7.72;1.70;;;19.60;99.90;;;;;;5036991;28;20045;-56
2022/06/06 13:33:24;;;;;;;5.82;1.88;;;19.80;99.90;;;;;;5036660;28;20102;-56
2022/06/06 13:35:59;;;;;;;6.55;2.58;;;20.00;99.90;;;;;;5048795;28;20029;-57
2022/06/06 13:38:38;;;;;;;10.00;2.08;;;20.50;99.90;;;;;;5050214;28;20123;-56
2022/06/06 13:41:20;;;;;;;5.07;1.30;;;21.30;99.90;;;;;;5047039;28;20077;-57
2022/06/06 13:44:23;;;;;;;6.50;1.90;;;21.60;99.50;;;;;;5049500;28;20029;-57
2022/06/06 13:47:10;;;;;;;5.50;1.20;;;21.00;99.90;;;;;;5037029;28;20029;-57
2022/06/06 13:49:54;;;;;;;6.13;1.77;;;22.00;99.70;;;;;;5051321;28;20029;-55
2022/06/06 13:52:48;;;;;;;4.80;2.25;;;22.50;98.20;;;;;;5049553;28;20037;-58
2022/06/06 13:55:25;;;;;;;4.97;1.30;;;22.00;97.60;;;;;;5054084;28;20020;-56
2022/06/06 13:58:14;;;;;;;8.23;1.40;;;22.10;97.70;;;;;;5059715;28;20028;-56
2022/06/06 14:01:05;;;;;;;5.80;1.38;;;21.50;98.80;;;;;;5056415;28;20041;-57
2022/06/06 14:03:37;;;;;;;8.98;1.45;;;21.40;99.60;;;;;;5065947;28;20036;-57
2022/06/06 14:06:40;;;;;;;9.05;2.83;;;21.10;99.90;;;;;;5052634;28;20502;-58
2022/06/06 14:09:07;;;;;;;7.35;1.85;;;20.60;99.90;;;;;;4993833;28;20116;-56
2022/06/06 14:11:51;;;;;;;15.30;1.88;;;21.70;99.20;;;;;;5021885;28;20030;-57
2022/06/06 14:14:20;;;;;;;3.55;1.05;;;21.60;98.50;;;;;;5008580;28;20045;-56
2022/06/06 14:17:02;;;;;;;10.48;1.05;;;21.80;98.60;;;;;;5005388;28;20133;-55
2022/06/06 14:19:46;;;;;;;7.85;1.30;;;22.70;95.30;;;;;;4991095;28;20118;-57
2022/06/06 14:22:28;;;;;;;5.55;0.90;;;22.10;96.00;;;;;;5006054;28;20030;-57
2022/06/06 14:24:55;;;;;;;5.63;1.52;;;21.50;95.80;;;;;;5001858;28;20036;-56